Pasco, Washington
Current Conditions -  °F | °C
As of 5:53 AM on Thursday 29 Jan 2015 (Local Time) from KPSC Reporting Station
Overcast Overcast  
Wind Chill: 34°   Ceiling: 1300
Heat Index: 38°   Visibility: 10mi
Dew Point: 36°   Wind: 5mph
Humidity: 93%   Direction: 270°W
Pressure: 30.5"   Gusts: NA
Location:  46.24°N, 119.09°W
Report Text: KPSC 291353Z 27004KT 10SM OVC013 03/02 A3050 RMK AO2 SLP330 T00330022 $
Loading
Personal Weather Stations






























Interactive Weather Map New forecast layout! Learn more

10-Day Weather Forecast

Advertisements
Track Severe Weather on mobile